createdAt,value
2023-01-28T00:00:03.345Z,-0.51
2023-01-28T00:03:08.125Z,-0.57
2023-01-28T00:06:14.060Z,-0.65
2023-01-28T00:09:17.361Z,-0.72
2023-01-28T00:12:21.705Z,-0.69
2023-01-28T00:15:25.469Z,-0.70
2023-01-28T00:18:30.020Z,-0.75
2023-01-28T00:21:33.060Z,-0.77
2023-01-28T00:24:36.124Z,-0.81
2023-01-28T00:27:40.459Z,-0.84
2023-01-28T00:30:43.471Z,-0.84
2023-01-28T00:33:49.168Z,-0.89
2023-01-28T00:36:57.657Z,-0.89
2023-01-28T00:40:00.793Z,-0.88
2023-01-28T00:43:06.285Z,-1.03
2023-01-28T00:46:10.883Z,-1.01
2023-01-28T00:49:13.942Z,-1.12
2023-01-28T00:52:17.725Z,-1.10
2023-01-28T00:55:21.784Z,-1.11
2023-01-28T00:58:26.187Z,-1.11
2023-01-28T01:01:29.403Z,-1.09
2023-01-28T01:04:35.402Z,-1.10
2023-01-28T01:07:42.552Z,-1.08
2023-01-28T01:10:48.020Z,-1.10
2023-01-28T01:13:56.737Z,-1.14
2023-01-28T01:17:01.004Z,-1.21
2023-01-28T01:20:06.283Z,-1.18
2023-01-28T01:23:10.320Z,-1.18
2023-01-28T01:26:14.418Z,-1.18
2023-01-28T01:29:18.767Z,-1.17
2023-01-28T01:32:22.352Z,-1.17
2023-01-28T01:35:26.010Z,-1.15
2023-01-28T01:38:30.854Z,-1.10
2023-01-28T01:41:34.494Z,-1.04
2023-01-28T01:44:59.214Z,-1.00
2023-01-28T01:48:14.959Z,-0.93
2023-01-28T01:51:23.154Z,-0.90
2023-01-28T01:54:29.688Z,-0.87
2023-01-28T01:57:36.107Z,-0.84
2023-01-28T02:00:41.715Z,-0.82
2023-01-28T02:03:54.806Z,-0.80
2023-01-28T02:07:02.269Z,-0.72
2023-01-28T02:10:09.146Z,-0.72
2023-01-28T02:13:12.649Z,-0.70
2023-01-28T02:16:17.525Z,-0.67
2023-01-28T02:19:23.385Z,-0.59
2023-01-28T02:22:56.334Z,-0.60
2023-01-28T02:26:40.351Z,-0.58
2023-01-28T02:29:51.449Z,-0.59
2023-01-28T02:32:59.249Z,-0.58
2023-01-28T02:36:13.721Z,-0.57
2023-01-28T02:39:24.962Z,-0.52
2023-01-28T02:42:31.246Z,-0.50
2023-01-28T02:45:51.134Z,-0.47
2023-01-28T02:48:54.492Z,-0.40
2023-01-28T02:52:17.377Z,-0.38
2023-01-28T02:55:35.571Z,-0.39
2023-01-28T02:58:44.510Z,-0.42
2023-01-28T03:01:51.721Z,-0.43
2023-01-28T03:05:02.953Z,-0.42
2023-01-28T03:08:28.112Z,-0.34
2023-01-28T03:11:53.673Z,-0.33
2023-01-28T03:15:18.238Z,-0.31
2023-01-28T03:18:44.110Z,-0.30
2023-01-28T03:22:05.877Z,-0.35
2023-01-28T03:25:30.579Z,-0.31
2023-01-28T03:28:58.166Z,-0.27
2023-01-28T03:32:20.589Z,-0.38
2023-01-28T03:35:44.645Z,-0.35
2023-01-28T03:38:48.918Z,-0.37
2023-01-28T03:42:04.937Z,-0.31
2023-01-28T03:45:09.986Z,-0.35
2023-01-28T03:48:15.422Z,-0.31
2023-01-28T03:51:20.218Z,-0.29
2023-01-28T03:54:23.431Z,-0.29
2023-01-28T03:57:31.447Z,-0.22
2023-01-28T04:00:37.941Z,-0.21
2023-01-28T04:03:41.094Z,-0.14
2023-01-28T04:06:50.839Z,-0.14
2023-01-28T04:10:00.151Z,-0.12
2023-01-28T04:13:13.602Z,-0.10
2023-01-28T04:16:20.342Z,-0.08
2023-01-28T04:19:24.234Z,-0.04
2023-01-28T04:22:29.592Z,-0.03
2023-01-28T04:25:33.419Z,-0.06
2023-01-28T04:28:37.469Z,-0.10
2023-01-28T04:31:40.573Z,-0.04
2023-01-28T04:34:58.577Z,-0.01
2023-01-28T04:38:13.866Z,-0.05
2023-01-28T04:41:29.627Z,-0.05
2023-01-28T04:44:38.537Z,-0.06
2023-01-28T04:47:56.237Z,0.05
2023-01-28T04:51:18.115Z,0.05
2023-01-28T04:54:32.610Z,0.06
2023-01-28T04:57:38.485Z,0.04
2023-01-28T05:00:43.773Z,0.02
2023-01-28T05:03:46.839Z,-0.05
2023-01-28T05:06:58.482Z,0.01
2023-01-28T05:10:10.687Z,0.06
2023-01-28T05:13:14.439Z,0.06
2023-01-28T05:16:17.774Z,0.07
2023-01-28T05:19:21.324Z,0.12
2023-01-28T05:22:24.523Z,0.12
2023-01-28T05:25:53.711Z,0.12
2023-01-28T05:28:57.339Z,0.18
2023-01-28T05:32:00.853Z,0.19
2023-01-28T05:35:04.552Z,0.23
2023-01-28T05:38:07.678Z,0.27
2023-01-28T05:41:12.087Z,0.25
2023-01-28T05:44:16.471Z,0.23
2023-01-28T05:47:54.764Z,0.22
2023-01-28T05:51:12.631Z,0.28
2023-01-28T05:54:21.077Z,0.31
2023-01-28T05:57:26.223Z,0.25
2023-01-28T06:00:29.417Z,0.25
2023-01-28T06:03:32.510Z,0.29
2023-01-28T06:06:35.563Z,0.32
2023-01-28T06:09:41.558Z,0.32
2023-01-28T06:12:48.738Z,0.36
2023-01-28T06:16:11.823Z,0.38
2023-01-28T06:19:23.552Z,0.31
2023-01-28T06:22:27.081Z,0.29
2023-01-28T06:25:30.151Z,0.43
2023-01-28T06:28:38.647Z,0.32
2023-01-28T06:31:41.724Z,0.36
2023-01-28T06:34:44.837Z,0.31
2023-01-28T06:37:48.115Z,0.35
2023-01-28T06:40:55.847Z,0.39
2023-01-28T06:44:00.250Z,0.33
2023-01-28T06:47:03.380Z,0.33
2023-01-28T06:50:07.471Z,0.36
2023-01-28T06:53:10.486Z,0.39
2023-01-28T06:56:13.545Z,0.38
2023-01-28T06:59:18.250Z,0.41
2023-01-28T07:02:21.231Z,0.46
2023-01-28T07:05:24.977Z,0.42
2023-01-28T07:08:27.932Z,0.35
2023-01-28T07:11:31.231Z,0.35
2023-01-28T07:14:38.610Z,0.43
2023-01-28T07:17:41.815Z,0.38
2023-01-28T07:20:44.918Z,0.36
2023-01-28T07:23:47.946Z,0.34
2023-01-28T07:31:53.863Z,0.44
2023-01-28T07:34:57.041Z,0.46
2023-01-28T07:38:02.120Z,0.50
2023-01-28T07:41:05.865Z,0.53
2023-01-28T07:44:09.119Z,0.60
2023-01-28T07:47:13.963Z,0.58
2023-01-28T07:50:18.910Z,0.58
2023-01-28T07:53:23.093Z,0.58
2023-01-28T07:56:29.393Z,0.59
2023-01-28T07:59:32.422Z,0.66
2023-01-28T08:02:37.275Z,0.67
2023-01-28T08:06:15.693Z,0.74
2023-01-28T08:09:18.899Z,0.80
2023-01-28T08:12:21.991Z,0.83
2023-01-28T08:15:25.753Z,0.87
2023-01-28T08:18:30.188Z,0.90
2023-01-28T08:21:33.361Z,0.89
2023-01-28T08:24:36.572Z,0.89
2023-01-28T08:27:39.621Z,0.90
2023-01-28T08:30:43.414Z,0.93
2023-01-28T08:33:47.782Z,0.91
2023-01-28T08:36:50.779Z,0.90
2023-01-28T08:39:53.757Z,0.89
2023-01-28T08:42:56.757Z,0.94
2023-01-28T08:45:59.797Z,0.92
2023-01-28T08:49:04.646Z,0.99
2023-01-28T08:52:07.684Z,1.04
2023-01-28T08:55:11.325Z,1.05
2023-01-28T08:58:16.679Z,1.07
2023-01-28T09:01:19.832Z,1.05
2023-01-28T09:04:24.390Z,1.05
2023-01-28T09:07:27.352Z,1.04
2023-01-28T09:10:30.816Z,1.08
2023-01-28T09:13:33.850Z,1.11
2023-01-28T09:16:36.954Z,1.14
2023-01-28T09:19:43.190Z,1.19
2023-01-28T09:22:46.194Z,1.21
2023-01-28T09:25:49.362Z,1.21
2023-01-28T09:28:52.415Z,1.19
2023-01-28T09:31:56.608Z,1.19
2023-01-28T09:35:00.952Z,1.29
2023-01-28T09:38:04.605Z,1.35
2023-01-28T09:41:25.355Z,1.40
2023-01-28T09:44:44.975Z,1.35
2023-01-28T09:47:52.854Z,1.36
2023-01-28T09:50:57.489Z,1.36
2023-01-28T09:54:06.549Z,1.45
2023-01-28T09:57:20.760Z,1.44
2023-01-28T10:00:31.500Z,1.46
2023-01-28T10:03:51.407Z,1.45
2023-01-28T10:07:13.164Z,1.44
2023-01-28T10:10:22.216Z,1.53
2023-01-28T10:13:41.866Z,1.56
2023-01-28T10:16:50.910Z,1.42
2023-01-28T10:20:00.518Z,1.39
2023-01-28T10:23:13.097Z,1.44
2023-01-28T10:26:34.415Z,1.43
2023-01-28T10:29:39.977Z,1.49
2023-01-28T10:32:52.735Z,1.56
2023-01-28T10:35:57.737Z,1.64
2023-01-28T10:39:02.197Z,1.58
2023-01-28T10:42:18.977Z,1.51
2023-01-28T10:45:25.587Z,1.51
2023-01-28T10:48:35.075Z,1.56
2023-01-28T10:51:42.111Z,1.68
2023-01-28T10:54:46.470Z,1.60
2023-01-28T10:57:50.168Z,1.65
2023-01-28T11:01:01.147Z,1.58
2023-01-28T11:04:04.462Z,1.63
2023-01-28T11:07:18.842Z,1.75
2023-01-28T11:10:32.946Z,1.82
2023-01-28T11:13:35.923Z,1.77
2023-01-28T11:16:41.176Z,1.73
2023-01-28T11:19:47.657Z,1.76
2023-01-28T11:22:51.762Z,1.74
2023-01-28T11:26:06.838Z,1.64
2023-01-28T11:29:25.489Z,1.72
2023-01-28T11:32:29.767Z,1.75
2023-01-28T11:35:33.545Z,1.66
2023-01-28T11:38:36.590Z,1.68
2023-01-28T11:41:41.011Z,1.77
2023-01-28T11:44:44.696Z,1.71
2023-01-28T11:48:04.290Z,1.73
2023-01-28T11:51:24.567Z,1.74
2023-01-28T11:54:42.677Z,1.72
2023-01-28T11:58:00.295Z,1.65
2023-01-28T12:01:10.200Z,1.70
2023-01-28T12:04:36.933Z,1.67
2023-01-28T12:07:46.605Z,1.70
2023-01-28T12:11:04.347Z,1.71
2023-01-28T12:14:22.986Z,1.65
2023-01-28T12:17:43.736Z,1.69
2023-01-28T12:20:57.900Z,1.69
2023-01-28T12:24:18.965Z,1.80
2023-01-28T12:27:37.682Z,1.77
2023-01-28T12:31:02.038Z,1.78
2023-01-28T12:34:38.335Z,1.81
2023-01-28T12:38:00.835Z,1.74
2023-01-28T12:41:11.327Z,1.65
2023-01-28T12:44:21.812Z,1.69
2023-01-28T12:47:35.514Z,1.59
2023-01-28T12:50:45.291Z,1.45
2023-01-28T12:53:53.779Z,1.50
2023-01-28T12:57:01.170Z,1.47
2023-01-28T13:00:20.618Z,1.49
2023-01-28T13:03:36.306Z,1.56
2023-01-28T13:06:43.893Z,1.53
2023-01-28T13:09:59.933Z,1.50
2023-01-28T13:13:03.968Z,1.57
2023-01-28T13:16:11.205Z,1.63
2023-01-28T13:19:26.946Z,1.71
2023-01-28T13:22:36.151Z,1.75
2023-01-28T13:25:50.566Z,1.67
2023-01-28T13:28:55.537Z,1.52
2023-01-28T13:32:01.164Z,1.57
2023-01-28T13:35:24.017Z,1.59
2023-01-28T13:38:27.304Z,1.55
2023-01-28T13:41:40.579Z,1.53
2023-01-28T13:44:43.597Z,1.40
2023-01-28T13:47:55.155Z,1.41
2023-01-28T13:51:01.569Z,1.44
2023-01-28T13:54:07.869Z,1.51
2023-01-28T13:57:44.451Z,1.51
2023-01-28T14:01:43.463Z,1.52
2023-01-28T14:05:17.808Z,1.62
2023-01-28T14:08:51.231Z,1.70
2023-01-28T14:12:27.317Z,1.75
2023-01-28T14:15:58.824Z,1.69
2023-01-28T14:19:03.643Z,1.71
2023-01-28T14:22:10.716Z,1.56
2023-01-28T14:25:22.378Z,1.73
2023-01-28T14:28:38.790Z,1.73
2023-01-28T14:31:42.404Z,1.74
2023-01-28T14:34:47.011Z,1.82
2023-01-28T14:37:50.733Z,1.66
2023-01-28T14:40:56.733Z,1.73
2023-01-28T14:44:00.153Z,1.69
2023-01-28T14:47:33.158Z,1.76
2023-01-28T14:51:07.161Z,1.70
2023-01-28T14:54:36.146Z,1.62
2023-01-28T14:57:51.282Z,1.70
2023-01-28T15:00:57.063Z,1.72
2023-01-28T15:04:00.260Z,1.72
2023-01-28T15:07:19.505Z,1.77
2023-01-28T15:10:29.479Z,1.70
2023-01-28T15:13:37.820Z,1.61
2023-01-28T15:16:41.178Z,1.53
2023-01-28T15:19:44.644Z,1.47
2023-01-28T15:22:48.008Z,1.52
2023-01-28T15:25:54.469Z,1.49
2023-01-28T15:29:00.242Z,1.54
2023-01-28T15:32:04.014Z,1.53
2023-01-28T15:35:14.152Z,1.49
2023-01-28T15:38:17.799Z,1.47
2023-01-28T15:41:24.077Z,1.49
2023-01-28T15:44:33.838Z,1.50
2023-01-28T15:47:36.959Z,1.47
2023-01-28T15:50:44.896Z,1.52
2023-01-28T15:53:52.307Z,1.49
2023-01-28T15:56:55.402Z,1.51
2023-01-28T16:00:14.549Z,1.43
2023-01-28T16:03:23.435Z,1.36
2023-01-28T16:06:33.594Z,1.37
2023-01-28T16:09:37.871Z,1.39
2023-01-28T16:12:40.876Z,1.39
2023-01-28T16:15:52.582Z,1.35
2023-01-28T16:18:59.231Z,1.30
2023-01-28T16:22:02.990Z,1.29
2023-01-28T16:25:28.379Z,1.27
2023-01-28T16:28:32.610Z,1.37
2023-01-28T16:31:37.304Z,1.37
2023-01-28T16:34:42.225Z,1.37
2023-01-28T16:37:45.645Z,1.35
2023-01-28T16:40:49.494Z,1.35
2023-01-28T16:43:52.502Z,1.39
2023-01-28T16:46:57.153Z,1.33
2023-01-28T16:50:00.343Z,1.28
2023-01-28T16:53:04.004Z,1.24
2023-01-28T16:56:19.507Z,1.27
2023-01-28T16:59:34.603Z,1.20
2023-01-28T17:02:38.968Z,1.22
2023-01-28T17:05:42.276Z,1.20
2023-01-28T17:08:45.597Z,1.20
2023-01-28T17:11:51.146Z,1.16
2023-01-28T17:14:54.071Z,1.16
2023-01-28T17:17:58.495Z,1.15
2023-01-28T17:21:03.073Z,1.14
2023-01-28T17:24:07.374Z,1.16
2023-01-28T17:27:10.832Z,1.19
2023-01-28T17:30:15.201Z,1.21
2023-01-28T17:33:19.554Z,1.16
2023-01-28T17:36:22.829Z,1.12
2023-01-28T17:39:25.830Z,1.10
2023-01-28T17:42:31.038Z,1.11
2023-01-28T17:45:34.472Z,1.05
2023-01-28T17:48:38.837Z,1.03
2023-01-28T17:51:42.151Z,0.98
2023-01-28T17:54:45.293Z,0.99
2023-01-28T17:57:48.276Z,0.92
2023-01-28T18:00:51.539Z,0.91
2023-01-28T18:03:56.283Z,0.89
2023-01-28T18:06:59.314Z,0.87
2023-01-28T18:10:02.422Z,0.81
2023-01-28T18:13:05.670Z,0.83
2023-01-28T18:16:14.883Z,0.77
2023-01-28T18:19:19.237Z,0.75
2023-01-28T18:22:22.351Z,0.73
2023-01-28T18:25:25.291Z,0.68
2023-01-28T18:28:29.456Z,0.66
2023-01-28T18:31:32.588Z,0.65
2023-01-28T18:34:37.282Z,0.72
2023-01-28T18:37:41.503Z,0.59
2023-01-28T18:40:45.333Z,0.56
2023-01-28T18:43:48.349Z,0.56
2023-01-28T18:46:51.595Z,0.57
2023-01-28T18:49:56.274Z,0.54
2023-01-28T18:52:59.569Z,0.45
2023-01-28T18:56:04.188Z,0.48
2023-01-28T18:59:10.497Z,0.44
2023-01-28T19:02:15.696Z,0.48
2023-01-28T19:05:20.136Z,0.48
2023-01-28T19:08:23.128Z,0.45
2023-01-28T19:11:30.119Z,0.48
2023-01-28T19:14:33.330Z,0.46
2023-01-28T19:17:36.348Z,0.51
2023-01-28T19:20:41.445Z,0.46
2023-01-28T19:23:50.109Z,0.50
2023-01-28T19:26:53.612Z,0.46
2023-01-28T19:29:56.706Z,0.44
2023-01-28T19:33:00.968Z,0.42
2023-01-28T19:36:06.196Z,0.40
2023-01-28T19:39:10.492Z,0.45
2023-01-28T19:42:13.595Z,0.46
2023-01-28T19:45:16.918Z,0.48
2023-01-28T19:48:20.113Z,0.44
2023-01-28T19:51:24.813Z,0.45
2023-01-28T19:54:28.005Z,0.40
2023-01-28T19:57:31.301Z,0.35
2023-01-28T20:00:34.915Z,0.38
2023-01-28T20:03:39.468Z,0.40
2023-01-28T20:06:43.984Z,0.43
2023-01-28T20:09:47.230Z,0.45
2023-01-28T20:12:50.325Z,0.47
2023-01-28T20:15:53.360Z,0.46
2023-01-28T20:18:59.418Z,0.45
2023-01-28T20:22:05.771Z,0.38
2023-01-28T20:25:10.144Z,0.40
2023-01-28T20:28:16.676Z,0.39
2023-01-28T20:31:21.185Z,0.32
2023-01-28T20:34:24.302Z,0.30
2023-01-28T20:37:29.375Z,0.29
2023-01-28T20:40:32.445Z,0.22
2023-01-28T20:43:36.578Z,0.12
2023-01-28T20:46:41.278Z,0.12
2023-01-28T20:49:44.270Z,0.12
2023-01-28T20:52:48.762Z,0.09
2023-01-28T20:55:57.222Z,0.07
2023-01-28T20:59:04.992Z,0.15
2023-01-28T21:02:09.796Z,0.14
2023-01-28T21:05:13.506Z,0.20
2023-01-28T21:08:20.879Z,0.19
2023-01-28T21:11:25.614Z,0.10
2023-01-28T21:14:28.615Z,0.04
2023-01-28T21:17:31.920Z,0.01
2023-01-28T21:20:35.515Z,0.01
2023-01-28T21:23:39.949Z,-0.05
2023-01-28T21:26:43.103Z,-0.04
2023-01-28T21:29:50.244Z,-0.14
2023-01-28T21:32:56.136Z,-0.11
2023-01-28T21:35:59.094Z,-0.16
2023-01-28T21:39:05.809Z,-0.19
2023-01-28T21:42:08.921Z,-0.20
2023-01-28T21:45:14.676Z,-0.31
2023-01-28T21:48:18.056Z,-0.32
2023-01-28T21:51:36.487Z,-0.31
2023-01-28T21:54:40.872Z,-0.26
2023-01-28T21:57:44.163Z,-0.32
2023-01-28T22:00:46.169Z,-0.35
2023-01-28T22:03:49.688Z,-0.44
2023-01-28T22:06:57.167Z,-0.48
2023-01-28T22:10:01.487Z,-0.49
2023-01-28T22:13:04.541Z,-0.50
2023-01-28T22:16:08.798Z,-0.57
2023-01-28T22:19:15.168Z,-0.55
2023-01-28T22:22:18.983Z,-0.60
2023-01-28T22:25:23.497Z,-0.61
2023-01-28T22:28:30.323Z,-0.63
2023-01-28T22:31:33.488Z,-0.59
2023-01-28T22:34:36.714Z,-0.61
2023-01-28T22:37:39.970Z,-0.66
2023-01-28T22:40:44.552Z,-0.68
2023-01-28T22:43:48.275Z,-0.65
2023-01-28T22:46:51.463Z,-0.67
2023-01-28T22:49:54.553Z,-0.67
2023-01-28T22:53:00.087Z,-0.69
2023-01-28T22:56:04.894Z,-0.62
2023-01-28T22:59:08.091Z,-0.56
2023-01-28T23:02:12.575Z,-0.55
2023-01-28T23:05:15.858Z,-0.53
2023-01-28T23:08:19.562Z,-0.50
2023-01-28T23:11:27.212Z,-0.55
2023-01-28T23:14:47.887Z,-0.52
2023-01-28T23:18:08.230Z,-0.55
2023-01-28T23:21:36.455Z,-0.52
2023-01-28T23:24:39.669Z,-0.50
2023-01-28T23:27:44.271Z,-0.52
2023-01-28T23:30:47.468Z,-0.50
2023-01-28T23:33:50.536Z,-0.46
2023-01-28T23:36:55.402Z,-0.47
2023-01-28T23:40:01.376Z,-0.53
2023-01-28T23:43:06.014Z,-0.50
2023-01-28T23:46:10.383Z,-0.46
2023-01-28T23:49:13.704Z,-0.48
2023-01-28T23:52:16.694Z,-0.46
2023-01-28T23:55:19.751Z,-0.46
2023-01-28T23:58:42.304Z,-0.47
